Time;durP1;ratioP1;P1;durP2;ratioP2;P2;SDS_P1;SDS_P2;PMS_P1;PMS_P2;Temp;Humidity;BMP_temperature;BMP_pressure;BME280_temperature;BME280_humidity;BME280_pressure;Samples;Min_cycle;Max_cycle;Signal;HPM_P1;HPM_P2
2022/09/19 00:01:15;;;;;;;17.77;3.00;;;11.70;99.90;;;;;;5033592;28;20497;-73
2022/09/19 00:03:43;;;;;;;18.45;2.70;;;11.70;99.90;;;;;;5032269;28;20570;-70
2022/09/19 00:06:11;;;;;;;16.60;2.60;;;11.70;99.90;;;;;;5025047;28;20060;-70
2022/09/19 00:08:42;;;;;;;18.77;2.35;;;11.70;99.90;;;;;;5026742;28;20037;-70
2022/09/19 00:11:10;;;;;;;18.45;2.35;;;11.80;99.90;;;;;;5030200;28;20506;-70
2022/09/19 00:13:44;;;;;;;14.57;1.98;;;11.80;99.90;;;;;;5029383;28;20635;-71
2022/09/19 00:16:11;;;;;;;22.73;2.10;;;11.80;99.90;;;;;;5029102;28;20060;-70
2022/09/19 00:18:37;;;;;;;18.70;2.60;;;11.80;99.90;;;;;;5028845;28;20107;-71
2022/09/19 00:21:03;;;;;;;16.35;2.28;;;11.80;99.90;;;;;;5028649;28;20525;-70
2022/09/19 00:26:17;;;;;;;16.83;3.03;;;11.80;99.90;;;;;;5048441;28;20060;-70
2022/09/19 00:28:45;;;;;;;14.32;1.77;;;11.80;99.90;;;;;;5028741;28;20037;-71
2022/09/19 00:31:18;;;;;;;18.05;2.10;;;12.10;99.90;;;;;;5023592;28;20077;-70
2022/09/19 00:33:46;;;;;;;11.68;1.80;;;11.80;99.90;;;;;;5031096;28;20053;-70
2022/09/19 00:36:13;;;;;;;16.40;1.70;;;11.90;99.90;;;;;;5033071;28;20099;-70
2022/09/19 00:38:39;;;;;;;12.93;1.58;;;11.80;99.90;;;;;;5021548;28;20671;-70
2022/09/19 00:41:06;;;;;;;18.88;2.67;;;11.90;99.90;;;;;;5043284;28;20136;-70
2022/09/19 00:43:51;;;;;;;13.35;2.20;;;11.80;99.90;;;;;;5025916;28;20041;-70
2022/09/19 00:46:19;;;;;;;14.52;1.92;;;11.90;99.90;;;;;;5031292;28;20115;-70
2022/09/19 00:48:55;;;;;;;16.90;2.30;;;11.80;99.90;;;;;;5023305;28;20049;-70
2022/09/19 00:51:31;;;;;;;21.80;2.47;;;11.90;99.90;;;;;;5054896;28;20288;-71
2022/09/19 00:54:04;;;;;;;13.10;1.80;;;11.90;99.90;;;;;;5022973;28;20175;-70
2022/09/19 00:56:31;;;;;;;13.75;1.75;;;11.90;99.90;;;;;;5027700;28;20046;-70
2022/09/19 00:59:00;;;;;;;19.98;2.03;;;11.90;99.90;;;;;;5011259;28;20453;-71
2022/09/19 01:01:26;;;;;;;14.18;2.10;;;12.10;99.90;;;;;;5029283;28;20044;-69
2022/09/19 01:03:53;;;;;;;14.63;2.17;;;11.90;99.90;;;;;;5029306;28;20033;-69
2022/09/19 01:06:34;;;;;;;16.83;2.25;;;11.90;99.90;;;;;;5025218;28;20072;-68
2022/09/19 01:09:05;;;;;;;16.70;1.90;;;11.90;99.90;;;;;;5023320;28;20053;-68
2022/09/19 01:11:40;;;;;;;;;;;11.90;99.90;;;;;;5032378;28;20132;-69
2022/09/19 01:14:11;;;;;;;18.13;2.40;;;11.90;99.90;;;;;;5025745;28;20267;-69
2022/09/19 01:16:41;;;;;;;;;;;11.90;99.90;;;;;;5010091;28;20049;-71
2022/09/19 01:19:37;;;;;;;18.85;2.92;;;11.90;99.90;;;;;;5016722;28;19927;-70
2022/09/19 01:22:25;;;;;;;14.73;2.20;;;12.00;99.90;;;;;;5054586;28;20133;-71
2022/09/19 01:24:58;;;;;;;19.25;2.50;;;12.00;99.90;;;;;;5029674;28;20068;-70
2022/09/19 01:27:44;;;;;;;18.45;2.42;;;12.00;99.90;;;;;;5027657;28;20037;-70
2022/09/19 01:30:12;;;;;;;15.05;2.40;;;12.00;99.90;;;;;;5023486;28;20041;-70
2022/09/19 01:32:59;;;;;;;18.30;2.55;;;12.00;99.90;;;;;;5033459;28;20053;-71
2022/09/19 01:35:30;;;;;;;20.20;2.50;;;12.00;99.90;;;;;;5007780;28;20621;-70
2022/09/19 01:38:14;;;;;;;17.67;2.22;;;11.90;99.90;;;;;;4997591;28;20170;-70
2022/09/19 01:40:42;;;;;;;19.35;2.22;;;11.90;99.90;;;;;;5014555;28;20585;-70
2022/09/19 01:43:13;;;;;;;15.30;2.53;;;12.00;99.90;;;;;;5016364;28;20778;-70
2022/09/19 01:45:40;;;;;;;19.98;2.85;;;11.90;99.90;;;;;;5044293;28;20056;-70
2022/09/19 01:48:20;;;;;;;18.65;2.13;;;12.00;99.90;;;;;;4997518;28;20056;-70
2022/09/19 01:51:10;;;;;;;23.85;2.70;;;11.90;99.90;;;;;;5039982;28;20054;-70
2022/09/19 01:54:07;;;;;;;19.02;2.63;;;11.90;99.90;;;;;;5024648;28;20045;-70
2022/09/19 01:56:53;;;;;;;14.57;2.10;;;11.90;99.90;;;;;;5040894;28;20095;-71
2022/09/19 01:59:47;;;;;;;17.45;1.85;;;11.90;99.90;;;;;;5025263;28;20076;-71
2022/09/19 02:02:56;;;;;;;15.90;2.55;;;12.00;99.90;;;;;;5023762;28;20132;-70
2022/09/19 02:05:24;;;;;;;15.00;1.83;;;11.90;99.90;;;;;;5023308;28;20409;-71
2022/09/19 02:08:23;;;;;;;17.45;2.03;;;11.90;99.90;;;;;;5023117;28;20077;-71
2022/09/19 02:11:00;;;;;;;22.10;2.40;;;12.00;99.90;;;;;;5022542;28;20041;-71
2022/09/19 02:13:31;;;;;;;25.08;2.75;;;11.90;99.90;;;;;;5041258;28;20049;-70
2022/09/19 02:16:09;;;;;;;17.60;2.05;;;11.90;99.90;;;;;;5023631;28;20112;-70
2022/09/19 02:18:49;;;;;;;17.65;2.38;;;11.90;99.90;;;;;;5024397;28;20045;-70
2022/09/19 02:21:19;;;;;;;11.55;2.08;;;11.90;99.90;;;;;;5042308;28;20826;-70
2022/09/19 02:23:50;;;;;;;14.15;2.15;;;11.90;99.90;;;;;;5043882;28;20052;-70
2022/09/19 02:26:20;;;;;;;9.90;1.80;;;11.90;99.90;;;;;;5026035;28;20057;-70
2022/09/19 02:28:49;;;;;;;11.93;1.80;;;12.00;99.90;;;;;;5023268;28;20472;-70
2022/09/19 02:31:16;;;;;;;14.93;1.83;;;11.90;99.90;;;;;;5024861;28;20060;-70
2022/09/19 02:33:47;;;;;;;8.98;1.45;;;11.90;99.90;;;;;;5024083;28;20040;-70
2022/09/19 02:36:34;;;;;;;14.13;1.80;;;11.90;99.90;;;;;;5035028;28;20041;-70
2022/09/19 02:39:28;;;;;;;6.97;1.60;;;11.90;99.90;;;;;;5041113;28;20128;-70
2022/09/19 02:42:30;;;;;;;15.25;1.92;;;11.90;99.90;;;;;;5029152;28;20079;-70
2022/09/19 02:45:17;;;;;;;10.35;1.30;;;11.80;99.90;;;;;;4991987;28;20525;-69
2022/09/19 02:47:58;;;;;;;17.52;1.92;;;11.80;99.90;;;;;;5019893;28;20046;-70
2022/09/19 02:50:58;;;;;;;16.60;1.38;;;11.80;99.90;;;;;;5019237;28;20060;-70
2022/09/19 02:53:27;;;;;;;11.35;1.55;;;11.80;99.90;;;;;;5027393;28;20501;-70
2022/09/19 02:55:58;;;;;;;13.23;1.80;;;11.80;99.90;;;;;;5026476;28;20226;-70
2022/09/19 02:58:28;;;;;;;20.73;2.00;;;11.80;99.90;;;;;;5019013;28;20095;-70
2022/09/19 03:01:01;;;;;;;14.90;2.10;;;11.80;99.90;;;;;;5034659;28;20434;-70
2022/09/19 03:06:19;;;;;;;17.90;2.63;;;11.80;99.90;;;;;;5025794;28;20052;-70
2022/09/19 03:08:48;;;;;;;18.65;2.72;;;11.80;99.90;;;;;;5025763;28;20402;-70
2022/09/19 03:11:18;;;;;;;14.75;1.88;;;11.80;99.90;;;;;;5007797;28;20073;-70
2022/09/19 03:13:45;;;;;;;19.67;2.40;;;11.80;99.90;;;;;;5012842;28;20110;-70
2022/09/19 03:16:23;;;;;;;18.35;2.08;;;11.80;99.90;;;;;;5047069;28;20136;-70
2022/09/19 03:18:56;;;;;;;18.35;2.30;;;11.80;99.90;;;;;;5013919;28;20502;-70
2022/09/19 03:21:24;;;;;;;14.32;1.92;;;11.80;99.90;;;;;;5026303;28;20124;-70
2022/09/19 03:23:52;;;;;;;21.73;3.25;;;11.90;99.90;;;;;;5039855;28;20180;-70
2022/09/19 03:26:30;;;;;;;16.50;2.22;;;11.80;99.90;;;;;;5034194;28;20550;-70
2022/09/19 03:28:59;;;;;;;14.73;2.08;;;12.00;99.90;;;;;;5032397;28;20434;-69
2022/09/19 03:31:25;;;;;;;18.13;2.30;;;11.80;99.90;;;;;;5021395;28;20127;-71
2022/09/19 03:33:52;;;;;;;19.83;2.60;;;11.80;99.90;;;;;;5023913;28;20045;-70
2022/09/19 03:36:18;;;;;;;21.90;2.30;;;11.80;99.90;;;;;;5042441;28;20045;-70
2022/09/19 03:38:44;;;;;;;22.20;2.63;;;11.80;99.90;;;;;;5023929;28;20400;-70
2022/09/19 03:41:15;;;;;;;24.13;2.92;;;11.90;99.90;;;;;;5022300;28;20049;-70
2022/09/19 03:43:44;;;;;;;17.42;2.70;;;11.90;99.90;;;;;;5037504;28;20657;-70
2022/09/19 03:46:11;;;;;;;18.08;2.15;;;11.90;99.90;;;;;;5040481;28;20476;-70
2022/09/19 03:48:38;;;;;;;22.92;2.78;;;11.90;99.90;;;;;;5021249;28;20069;-71
2022/09/19 03:51:05;;;;;;;19.35;2.28;;;11.90;99.90;;;;;;5025940;28;20041;-70
2022/09/19 03:53:33;;;;;;;16.13;2.60;;;11.90;99.90;;;;;;5021046;28;20056;-71
2022/09/19 03:56:00;;;;;;;18.10;2.25;;;12.20;99.90;;;;;;5024549;28;20049;-71
2022/09/19 03:58:26;;;;;;;14.75;2.10;;;12.00;99.90;;;;;;5024712;28;20410;-71
2022/09/19 04:00:53;;;;;;;17.73;2.10;;;12.00;99.90;;;;;;5038883;28;20049;-71
2022/09/19 04:03:18;;;;;;;24.85;2.50;;;11.90;99.90;;;;;;5024615;28;20077;-71
2022/09/19 04:05:45;;;;;;;19.92;2.13;;;12.00;99.90;;;;;;5036087;28;20069;-71
2022/09/19 04:08:11;;;;;;;25.00;2.80;;;12.00;99.90;;;;;;5036944;28;20056;-70
2022/09/19 04:10:37;;;;;;;13.30;2.28;;;12.00;99.90;;;;;;5037239;28;20049;-70
2022/09/19 04:13:03;;;;;;;18.17;2.30;;;12.00;99.90;;;;;;5023899;28;20042;-70
2022/09/19 04:15:29;;;;;;;19.15;2.30;;;12.00;99.90;;;;;;5027654;28;20394;-71
2022/09/19 04:17:55;;;;;;;17.92;2.13;;;12.00;99.90;;;;;;5059546;28;20050;-70
2022/09/19 04:20:22;;;;;;;20.83;3.10;;;12.00;99.90;;;;;;5027821;28;20049;-70
2022/09/19 04:22:48;;;;;;;21.95;2.40;;;12.00;99.90;;;;;;5027894;28;20095;-70
2022/09/19 04:25:14;;;;;;;22.23;3.20;;;12.00;99.90;;;;;;5027612;28;20049;-70
2022/09/19 04:27:40;;;;;;;21.52;2.65;;;12.00;99.90;;;;;;5045351;28;20108;-71
2022/09/19 04:30:07;;;;;;;22.10;3.15;;;12.00;99.90;;;;;;5026876;28;20065;-70
2022/09/19 04:32:34;;;;;;;27.23;2.88;;;12.00;99.90;;;;;;5029357;28;20525;-70
2022/09/19 04:34:59;;;;;;;23.00;3.00;;;12.00;99.90;;;;;;5028081;28;20045;-70
2022/09/19 04:37:26;;;;;;;24.52;3.15;;;12.00;99.90;;;;;;5028593;28;20430;-71
2022/09/19 04:39:52;;;;;;;13.50;2.20;;;11.90;99.90;;;;;;5020219;28;20045;-71
2022/09/19 04:42:18;;;;;;;18.05;2.13;;;12.00;99.90;;;;;;5023418;28;20045;-71
2022/09/19 04:44:44;;;;;;;20.65;2.22;;;12.00;99.90;;;;;;5020145;28;20079;-71
2022/09/19 04:47:10;;;;;;;16.45;2.22;;;12.00;99.90;;;;;;5010655;28;20043;-71
2022/09/19 04:49:39;;;;;;;20.13;2.00;;;11.90;99.90;;;;;;5025016;28;20078;-71
2022/09/19 04:52:06;;;;;;;18.27;2.28;;;12.00;99.90;;;;;;5023747;28;20128;-71
2022/09/19 04:54:37;;;;;;;15.95;2.00;;;11.90;99.90;;;;;;5027193;28;20060;-71
2022/09/19 04:57:08;;;;;;;13.63;1.85;;;12.00;99.90;;;;;;5022023;28;20050;-71
2022/09/19 04:59:35;;;;;;;18.63;2.20;;;12.00;99.90;;;;;;5023057;28;20037;-71
2022/09/19 05:02:02;;;;;;;21.95;2.88;;;12.00;99.90;;;;;;5021201;28;20560;-71
2022/09/19 05:04:29;;;;;;;19.27;2.88;;;12.00;99.90;;;;;;5024765;28;20045;-71
2022/09/19 05:06:54;;;;;;;16.42;2.30;;;11.90;99.90;;;;;;5026503;28;20516;-71
2022/09/19 05:09:24;;;;;;;16.67;2.10;;;11.90;99.90;;;;;;5009144;28;20269;-70
2022/09/19 05:11:50;;;;;;;16.35;2.90;;;11.90;99.90;;;;;;5053787;28;20116;-70
2022/09/19 05:14:17;;;;;;;15.32;1.92;;;11.90;99.90;;;;;;5023546;28;20172;-70
2022/09/19 05:16:42;;;;;;;11.48;2.17;;;11.90;99.90;;;;;;5041283;28;20139;-69
2022/09/19 05:19:08;;;;;;;19.88;2.17;;;11.90;99.90;;;;;;5024580;28;20101;-70
2022/09/19 05:21:36;;;;;;;14.40;2.50;;;11.90;99.90;;;;;;5053811;28;20061;-70
2022/09/19 05:24:02;;;;;;;20.23;2.25;;;11.90;99.90;;;;;;5029316;28;20064;-71
2022/09/19 05:26:28;;;;;;;16.80;2.53;;;11.90;99.90;;;;;;5031463;28;20045;-70
2022/09/19 05:28:54;;;;;;;11.70;2.28;;;11.90;99.90;;;;;;5031941;28;20402;-70
2022/09/19 05:31:20;;;;;;;18.20;2.10;;;11.90;99.90;;;;;;5017915;28;20048;-70
2022/09/19 05:33:46;;;;;;;21.77;2.95;;;11.90;99.90;;;;;;5020939;28;20037;-69
2022/09/19 05:36:13;;;;;;;18.20;2.20;;;11.90;99.90;;;;;;5023031;28;20041;-70
2022/09/19 05:38:39;;;;;;;15.15;2.20;;;11.90;99.90;;;;;;4994735;28;20049;-71
2022/09/19 05:41:06;;;;;;;16.77;1.90;;;11.90;99.90;;;;;;5012067;28;20064;-71
2022/09/19 05:43:35;;;;;;;17.75;2.33;;;11.90;99.90;;;;;;5001778;28;20100;-71
2022/09/19 05:46:01;;;;;;;18.83;1.85;;;12.00;99.90;;;;;;5002156;28;20049;-71
2022/09/19 05:48:27;;;;;;;11.82;1.80;;;11.90;99.90;;;;;;5031758;28;20461;-71
2022/09/19 05:50:53;;;;;;;20.50;2.78;;;11.90;99.90;;;;;;5015943;28;20068;-71
2022/09/19 05:56:05;;;;;;;12.00;1.90;;;11.90;99.90;;;;;;5018571;28;20041;-69
2022/09/19 05:58:35;;;;;;;15.48;2.47;;;11.90;99.90;;;;;;5030028;28;20045;-69
2022/09/19 06:01:05;;;;;;;12.02;2.00;;;12.10;99.90;;;;;;5012528;28;20049;-69
2022/09/19 06:03:32;;;;;;;11.40;2.03;;;12.00;99.90;;;;;;5019752;28;20076;-69
2022/09/19 06:05:58;;;;;;;16.73;2.13;;;12.00;99.90;;;;;;5021475;28;20508;-70
2022/09/19 06:08:24;;;;;;;17.75;2.78;;;11.90;99.90;;;;;;5020934;28;20143;-70
2022/09/19 06:10:50;;;;;;;19.00;2.42;;;11.90;99.90;;;;;;5018736;28;20034;-70
2022/09/19 06:14:13;;;;;;;15.95;2.83;;;12.00;99.90;;;;;;5020764;28;20056;-70
2022/09/19 06:16:11;;;;;;;11.70;2.00;;;12.00;99.90;;;;;;5035427;28;20144;-70
2022/09/19 06:18:36;;;;;;;15.75;1.90;;;12.00;99.90;;;;;;5020675;28;20132;-70
2022/09/19 06:21:02;;;;;;;12.80;2.20;;;12.00;99.90;;;;;;5021220;28;20033;-70
2022/09/19 06:23:28;;;;;;;17.45;2.25;;;12.00;99.90;;;;;;5053680;28;20076;-70
2022/09/19 06:25:53;;;;;;;16.52;2.10;;;12.00;99.90;;;;;;5015724;28;20086;-70
2022/09/19 06:28:19;;;;;;;17.85;2.60;;;12.00;99.90;;;;;;5002710;28;20085;-69
2022/09/19 06:30:45;;;;;;;15.93;2.33;;;12.10;99.90;;;;;;5001192;28;20053;-70
2022/09/19 06:33:10;;;;;;;16.58;2.17;;;12.10;99.90;;;;;;5006782;28;20049;-70
2022/09/19 06:35:36;;;;;;;15.32;2.08;;;12.10;99.90;;;;;;5022262;28;20043;-70
2022/09/19 06:38:07;;;;;;;17.70;2.08;;;12.10;99.90;;;;;;5021029;28;20107;-71
2022/09/19 06:40:34;;;;;;;10.85;1.60;;;12.10;99.90;;;;;;5055349;28;20049;-71
2022/09/19 06:43:01;;;;;;;10.65;1.65;;;12.10;99.90;;;;;;5032164;28;20556;-71
2022/09/19 06:45:37;;;;;;;16.55;1.83;;;12.10;99.90;;;;;;5013797;28;20049;-70
2022/09/19 06:48:04;;;;;;;18.17;2.05;;;12.00;99.90;;;;;;5015755;28;20427;-71
2022/09/19 06:50:31;;;;;;;12.93;3.03;;;12.00;99.90;;;;;;4998030;28;20044;-71
2022/09/19 06:52:58;;;;;;;16.65;2.05;;;12.10;99.90;;;;;;5016644;28;20048;-70
2022/09/19 06:55:25;;;;;;;15.25;1.80;;;12.30;99.90;;;;;;4999318;28;20721;-70
2022/09/19 06:58:02;;;;;;;13.02;1.30;;;12.10;99.90;;;;;;5015593;28;20146;-71
2022/09/19 07:00:30;;;;;;;14.15;2.22;;;12.10;99.90;;;;;;5013618;28;20077;-70
2022/09/19 07:03:11;;;;;;;14.70;1.83;;;12.00;99.90;;;;;;4993552;28;20052;-71
2022/09/19 07:05:39;;;;;;;10.57;1.10;;;12.00;99.90;;;;;;5010372;28;20050;-70
2022/09/19 07:08:05;;;;;;;13.18;2.13;;;12.00;99.90;;;;;;5024645;28;20050;-71
2022/09/19 07:10:32;;;;;;;13.98;1.73;;;12.00;99.90;;;;;;5017872;28;20041;-70
2022/09/19 07:13:01;;;;;;;11.98;2.10;;;12.00;99.90;;;;;;5014225;28;20053;-71
2022/09/19 07:15:35;;;;;;;12.82;1.92;;;12.00;99.90;;;;;;5018290;28;20518;-71
2022/09/19 07:18:02;;;;;;;12.23;1.65;;;12.10;99.90;;;;;;5020313;28;20053;-71
2022/09/19 07:20:29;;;;;;;16.55;2.22;;;12.30;99.90;;;;;;5036353;28;20068;-70
2022/09/19 07:22:59;;;;;;;18.88;2.38;;;12.40;99.90;;;;;;5012785;28;20503;-70
2022/09/19 07:25:25;;;;;;;13.20;1.83;;;12.50;99.90;;;;;;5010067;28;20041;-70
2022/09/19 07:27:58;;;;;;;17.70;2.60;;;12.60;99.90;;;;;;5006407;28;20084;-71
2022/09/19 07:30:24;;;;;;;13.65;2.20;;;12.70;99.90;;;;;;5012809;28;20556;-70
2022/09/19 07:32:53;;;;;;;18.95;2.47;;;12.70;99.90;;;;;;5011342;28;20041;-70
2022/09/19 07:35:18;;;;;;;12.88;2.03;;;12.90;99.90;;;;;;5030775;28;20584;-70
2022/09/19 07:37:51;;;;;;;14.93;2.28;;;12.90;99.90;;;;;;5035552;28;20042;-71
2022/09/19 07:40:17;;;;;;;15.68;2.42;;;13.00;99.90;;;;;;4998615;28;20041;-70
2022/09/19 07:42:42;;;;;;;17.23;2.53;;;13.20;99.90;;;;;;5011950;28;20057;-70
2022/09/19 07:45:08;;;;;;;20.48;2.88;;;13.30;99.90;;;;;;5016668;28;20053;-70
2022/09/19 07:47:35;;;;;;;13.82;2.20;;;13.50;99.90;;;;;;5018758;28;20045;-69
2022/09/19 07:50:04;;;;;;;15.40;2.13;;;13.60;99.90;;;;;;5020829;28;20121;-70
2022/09/19 07:52:30;;;;;;;17.27;2.10;;;13.70;99.90;;;;;;5019814;28;20510;-71
2022/09/19 07:54:58;;;;;;;10.43;2.17;;;13.70;99.90;;;;;;5012261;28;20049;-71
2022/09/19 07:57:24;;;;;;;12.27;2.15;;;13.70;99.90;;;;;;5015456;28;20414;-71
2022/09/19 07:59:50;;;;;;;13.48;1.95;;;13.70;99.90;;;;;;5016882;28;20053;-70
2022/09/19 08:02:16;;;;;;;17.67;2.30;;;13.70;99.90;;;;;;5015948;28;20098;-70
2022/09/19 08:04:41;;;;;;;15.35;1.90;;;13.70;99.90;;;;;;5015374;28;20053;-70
2022/09/19 08:07:08;;;;;;;13.73;2.15;;;13.70;99.90;;;;;;5017098;28;20104;-71
2022/09/19 08:09:34;;;;;;;15.02;1.63;;;13.60;99.90;;;;;;5022867;28;20053;-68
2022/09/19 08:12:07;;;;;;;17.98;2.28;;;13.70;99.90;;;;;;5024288;28;20041;-69
2022/09/19 08:14:33;;;;;;;14.98;2.33;;;13.70;99.90;;;;;;5024784;28;20038;-70
2022/09/19 08:16:58;;;;;;;15.38;2.17;;;13.70;99.90;;;;;;5021095;28;20115;-69
2022/09/19 08:19:24;;;;;;;13.75;1.83;;;13.70;99.90;;;;;;5015923;28;20514;-70
2022/09/19 08:21:50;;;;;;;14.38;2.28;;;13.70;99.90;;;;;;5018717;28;20056;-70
2022/09/19 08:24:17;;;;;;;11.52;1.63;;;14.00;99.90;;;;;;5020741;28;20046;-70
2022/09/19 08:26:43;;;;;;;14.02;2.20;;;13.80;99.90;;;;;;5005925;28;20145;-70
2022/09/19 08:29:09;;;;;;;17.60;2.08;;;13.80;99.90;;;;;;5021116;28;20494;-72
2022/09/19 08:31:36;;;;;;;17.63;2.47;;;13.90;99.90;;;;;;5021349;28;20049;-71
2022/09/19 08:34:02;;;;;;;13.88;2.08;;;14.00;99.90;;;;;;5022681;28;20064;-69
2022/09/19 08:36:28;;;;;;;23.88;2.95;;;14.10;99.90;;;;;;5019219;28;20038;-70
2022/09/19 08:38:54;;;;;;;16.77;3.15;;;14.10;99.90;;;;;;5017389;28;20498;-70
2022/09/19 08:42:14;;;;;;;19.10;2.38;;;14.20;99.90;;;;;;5019055;28;20048;-69
2022/09/19 08:45:16;;;;;;;16.77;2.42;;;14.40;99.90;;;;;;5038680;28;20049;-71
2022/09/19 08:47:44;;;;;;;12.95;2.45;;;14.60;99.90;;;;;;5022548;28;20068;-69
2022/09/19 08:50:32;;;;;;;18.27;2.83;;;14.70;99.90;;;;;;5022258;28;20387;-69
2022/09/19 08:53:01;;;;;;;16.23;2.42;;;14.80;99.90;;;;;;5016207;28;20714;-70
2022/09/19 08:55:32;;;;;;;19.10;2.70;;;14.90;99.90;;;;;;5020212;28;20648;-70
2022/09/19 08:58:12;;;;;;;18.70;2.50;;;14.90;99.90;;;;;;5038662;28;20407;-70
2022/09/19 09:00:42;;;;;;;14.73;3.08;;;14.80;99.90;;;;;;5019873;28;20041;-70
2022/09/19 09:03:16;;;;;;;27.20;3.85;;;14.80;99.90;;;;;;5010760;28;20045;-70
2022/09/19 09:05:56;;;;;;;18.92;2.70;;;14.70;99.90;;;;;;5049594;28;20069;-70
2022/09/19 09:08:48;;;;;;;19.55;2.75;;;14.70;99.90;;;;;;5018544;28;20714;-70
2022/09/19 09:11:31;;;;;;;17.90;2.50;;;14.70;99.90;;;;;;5018687;28;20485;-70
2022/09/19 09:14:09;;;;;;;17.80;2.72;;;14.80;99.90;;;;;;5032248;28;20049;-70
2022/09/19 09:16:41;;;;;;;14.63;2.30;;;14.90;99.90;;;;;;5032649;28;20087;-70
2022/09/19 09:19:33;;;;;;;14.52;2.33;;;15.00;99.90;;;;;;5052347;28;20049;-71
2022/09/19 09:21:59;;;;;;;18.48;3.05;;;15.10;99.90;;;;;;5039113;28;20111;-69
2022/09/19 09:24:47;;;;;;;18.73;2.40;;;15.10;99.90;;;;;;5020281;28;20402;-71
2022/09/19 09:27:20;;;;;;;19.45;2.45;;;15.10;99.90;;;;;;5024048;28;20447;-71
2022/09/19 09:29:55;;;;;;;13.63;2.42;;;15.10;99.90;;;;;;5023804;28;20045;-69
2022/09/19 09:32:32;;;;;;;15.57;3.50;;;15.20;99.90;;;;;;5004893;28;20049;-70
2022/09/19 09:35:03;;;;;;;16.00;2.95;;;15.20;99.90;;;;;;5021985;28;20037;-70
2022/09/19 09:37:33;;;;;;;;;;;15.40;99.90;;;;;;5018736;28;20094;-71
2022/09/19 09:40:12;;;;;;;16.00;2.67;;;15.30;99.90;;;;;;5019221;28;19921;-70
2022/09/19 09:43:02;;;;;;;19.85;2.40;;;15.30;99.90;;;;;;5022994;28;20052;-70
2022/09/19 09:45:40;;;;;;;13.13;2.17;;;15.40;99.90;;;;;;5021628;28;20449;-71
2022/09/19 09:48:32;;;;;;;16.75;2.88;;;15.40;99.90;;;;;;5023769;28;20049;-70
2022/09/19 09:51:06;;;;;;;11.90;2.33;;;15.40;99.90;;;;;;5022512;28;20046;-72
2022/09/19 09:53:52;;;;;;;16.10;2.83;;;15.40;99.90;;;;;;5020033;28;20430;-70
2022/09/19 09:56:41;;;;;;;5.82;1.27;;;15.40;99.90;;;;;;5022983;28;20049;-70
2022/09/19 10:06:06;;;;;;;9.25;1.80;;;14.70;99.90;;;;;;5020601;28;20044;-71
2022/09/19 10:08:39;;;;;;;10.25;1.48;;;14.40;99.90;;;;;;5019327;28;20403;-70
2022/09/19 10:11:14;;;;;;;9.43;2.17;;;14.20;99.90;;;;;;5021489;28;20045;-71
2022/09/19 10:13:51;;;;;;;11.63;1.90;;;14.10;99.90;;;;;;5021774;28;20045;-71
2022/09/19 10:16:18;;;;;;;13.23;2.38;;;14.00;99.90;;;;;;5020906;28;20132;-71
2022/09/19 10:18:57;;;;;;;14.75;2.13;;;14.00;99.90;;;;;;4998493;28;20590;-71
2022/09/19 10:21:23;;;;;;;15.23;2.20;;;13.90;99.90;;;;;;5034849;28;20051;-71
2022/09/19 10:23:49;;;;;;;15.60;2.28;;;14.00;99.90;;;;;;5018540;28;20051;-71
2022/09/19 10:26:19;;;;;;;15.65;2.90;;;14.00;99.90;;;;;;5021141;28;20037;-71
2022/09/19 10:28:59;;;;;;;14.32;2.53;;;14.00;99.90;;;;;;5020540;28;20476;-71
2022/09/19 10:31:34;;;;;;;12.25;1.95;;;14.10;99.90;;;;;;5037867;28;20121;-71
2022/09/19 10:34:06;;;;;;;14.63;2.33;;;14.20;99.90;;;;;;5038296;28;20041;-71
2022/09/19 10:36:44;;;;;;;18.85;2.45;;;14.40;99.90;;;;;;5022343;28;20048;-71
2022/09/19 10:39:16;;;;;;;17.45;2.13;;;14.50;99.90;;;;;;5004168;28;20037;-73
2022/09/19 10:41:43;;;;;;;18.58;2.50;;;14.60;99.90;;;;;;5034827;28;20136;-71
2022/09/19 10:44:24;;;;;;;15.00;2.25;;;14.60;99.90;;;;;;5028123;28;20048;-71
2022/09/19 10:46:55;;;;;;;15.40;2.28;;;14.70;99.90;;;;;;5003709;28;20049;-71
2022/09/19 10:49:24;;;;;;;;;;;14.80;99.90;;;;;;5037196;28;20049;-71
2022/09/19 10:51:52;;;;;;;13.00;2.17;;;14.80;99.90;;;;;;5020707;28;20373;-71
2022/09/19 10:54:36;;;;;;;17.35;2.60;;;14.90;99.90;;;;;;5021639;28;20090;-72
2022/09/19 10:57:04;;;;;;;17.13;2.45;;;15.00;99.90;;;;;;5014616;28;20433;-71
2022/09/19 10:59:37;;;;;;;20.45;3.80;;;15.00;99.90;;;;;;5023478;28;20044;-71
2022/09/19 11:02:16;;;;;;;11.88;2.38;;;15.00;99.90;;;;;;5021221;28;20045;-71
2022/09/19 11:04:56;;;;;;;17.10;2.45;;;14.90;99.90;;;;;;5019934;28;20099;-71
2022/09/19 11:07:26;;;;;;;12.77;2.28;;;14.90;99.90;;;;;;5019609;28;20099;-71
2022/09/19 11:09:58;;;;;;;20.15;2.63;;;14.80;99.90;;;;;;5033820;28;20041;-72
2022/09/19 11:12:25;;;;;;;21.17;2.50;;;14.80;99.90;;;;;;5018275;28;20594;-71
2022/09/19 11:14:55;;;;;;;17.75;2.72;;;14.80;99.90;;;;;;5038625;28;20792;-72
2022/09/19 11:17:39;;;;;;;18.52;2.58;;;14.90;99.90;;;;;;5021014;28;20402;-70
2022/09/19 11:20:31;;;;;;;14.60;2.47;;;14.90;99.90;;;;;;5053241;28;20081;-70
2022/09/19 11:23:03;;;;;;;13.70;2.35;;;14.80;99.90;;;;;;5033470;28;20067;-71
2022/09/19 11:25:49;;;;;;;17.45;2.13;;;14.80;99.90;;;;;;5019519;28;20037;-71
2022/09/19 11:28:21;;;;;;;13.10;2.17;;;14.80;99.90;;;;;;5020925;28;20087;-72
2022/09/19 11:31:08;;;;;;;17.73;2.63;;;14.90;99.90;;;;;;5020855;28;20508;-71
2022/09/19 11:34:33;;;;;;;10.02;2.38;;;15.10;99.90;;;;;;5034098;28;20090;-72
2022/09/19 11:37:10;;;;;;;14.00;1.92;;;15.20;99.90;;;;;;5000414;28;20751;-71
2022/09/19 11:39:47;;;;;;;13.20;2.25;;;15.20;99.90;;;;;;5019564;28;20505;-72
2022/09/19 11:42:27;;;;;;;11.55;1.88;;;15.40;99.90;;;;;;5040200;28;20056;-72
2022/09/19 11:45:16;;;;;;;16.33;2.53;;;15.40;99.90;;;;;;5026042;28;20052;-73
2022/09/19 11:47:59;;;;;;;13.60;2.00;;;15.40;99.90;;;;;;5004270;28;20726;-72
2022/09/19 11:50:39;;;;;;;14.23;1.98;;;15.30;99.90;;;;;;5021339;28;20353;-72
2022/09/19 11:53:42;;;;;;;13.98;1.80;;;15.30;99.90;;;;;;5020546;28;20171;-72
2022/09/19 11:56:26;;;;;;;12.25;1.95;;;15.30;99.90;;;;;;5035937;28;20072;-72
2022/09/19 11:59:06;;;;;;;14.13;2.17;;;15.40;99.90;;;;;;5021149;28;20422;-72
2022/09/19 12:01:40;;;;;;;13.38;2.00;;;15.40;99.90;;;;;;5025506;28;20045;-72
2022/09/19 12:04:24;;;;;;;10.60;2.03;;;15.50;99.90;;;;;;5038871;28;20088;-72
2022/09/19 12:07:24;;;;;;;12.45;2.03;;;15.60;99.90;;;;;;5039606;28;20049;-72
2022/09/19 12:10:00;;;;;;;17.73;2.20;;;15.60;99.90;;;;;;5039311;28;20037;-72
2022/09/19 12:12:31;;;;;;;14.90;2.20;;;15.60;99.90;;;;;;5024005;28;20057;-73
2022/09/19 12:15:20;;;;;;;15.95;1.88;;;15.70;99.90;;;;;;5022433;28;20056;-72
2022/09/19 12:17:56;;;;;;;13.65;2.40;;;15.60;99.90;;;;;;5022979;28;20103;-72
2022/09/19 12:20:41;;;;;;;12.68;2.10;;;15.60;99.90;;;;;;5006717;28;20053;-72
2022/09/19 12:26:52;;;;;;;13.55;2.40;;;15.60;99.90;;;;;;5023101;28;20565;-72
2022/09/19 12:29:59;;;;;;;15.85;1.92;;;15.70;99.90;;;;;;5003208;28;20152;-71
2022/09/19 12:32:41;;;;;;;15.57;2.40;;;15.80;99.90;;;;;;5023557;28;20422;-73
2022/09/19 12:35:41;;;;;;;14.52;2.10;;;15.80;99.90;;;;;;5021386;28;20126;-72
2022/09/19 12:38:24;;;;;;;13.63;2.15;;;15.70;99.90;;;;;;5016146;28;20414;-73
2022/09/19 12:41:16;;;;;;;14.90;2.03;;;15.80;99.90;;;;;;5008311;28;20044;-73
2022/09/19 12:43:50;;;;;;;;;;;15.80;99.90;;;;;;5026007;28;20056;-72
2022/09/19 12:46:31;;;;;;;10.93;2.03;;;15.80;99.90;;;;;;5024558;28;19929;-72
2022/09/19 12:49:29;;;;;;;12.80;2.17;;;15.80;99.90;;;;;;5021892;28;20038;-72
2022/09/19 12:52:28;;;;;;;18.27;2.70;;;15.80;99.90;;;;;;5011078;28;20088;-73
2022/09/19 12:55:15;;;;;;;12.85;1.98;;;15.80;99.90;;;;;;5022761;28;20068;-72
2022/09/19 12:58:03;;;;;;;13.73;2.17;;;15.70;99.90;;;;;;5040805;28;20048;-72
2022/09/19 13:00:35;;;;;;;15.45;2.60;;;15.60;99.90;;;;;;5025373;28;20096;-72
2022/09/19 13:03:13;;;;;;;15.50;3.22;;;15.50;99.90;;;;;;5007097;28;20136;-73
2022/09/19 13:05:48;;;;;;;12.43;1.90;;;15.50;99.90;;;;;;5022159;28;20128;-73
2022/09/19 13:08:29;;;;;;;14.73;2.20;;;15.40;99.90;;;;;;5055495;28;20188;-73
2022/09/19 13:11:21;;;;;;;15.27;3.23;;;15.40;99.90;;;;;;5020188;28;20642;-73
2022/09/19 13:14:11;;;;;;;16.73;2.40;;;15.40;99.90;;;;;;5023026;28;20556;-73
2022/09/19 13:23:29;;;;;;;15.60;2.08;;;15.50;99.90;;;;;;5024840;28;20046;-73
2022/09/19 13:24:44;;;;;;;13.80;2.13;;;15.60;99.90;;;;;;5022615;28;20056;-72
2022/09/19 13:27:12;;;;;;;13.07;1.70;;;15.50;99.90;;;;;;5038707;28;20057;-73
2022/09/19 13:29:42;;;;;;;11.00;1.70;;;15.60;99.90;;;;;;5021942;28;20111;-72
2022/09/19 13:32:34;;;;;;;8.95;1.30;;;15.50;99.90;;;;;;5021793;28;20033;-71
2022/09/19 13:35:06;;;;;;;16.48;2.47;;;15.60;99.90;;;;;;5038222;28;20042;-73